Time;durP1;ratioP1;P1;durP2;ratioP2;P2;SDS_P1;SDS_P2;PMS_P1;PMS_P2;Temp;Humidity;BMP_temperature;BMP_pressure;BME280_temperature;BME280_humidity;BME280_pressure;Samples;Min_cycle;Max_cycle;Signal;HPM_P1;HPM_P2
2022/11/24 00:00:52;;;;;;;13.35;2.95;;;5.30;97.80;;;;;;5032135;28;20020;-76
2022/11/24 00:03:17;;;;;;;8.63;2.45;;;5.30;97.90;;;;;;5031957;28;20033;-77
2022/11/24 00:05:43;;;;;;;10.68;3.70;;;5.30;97.90;;;;;;5035213;28;20033;-77
2022/11/24 00:08:09;;;;;;;12.93;3.30;;;5.30;97.90;;;;;;5031002;28;20354;-76
2022/11/24 00:10:34;;;;;;;8.40;3.28;;;5.30;98.00;;;;;;5025090;28;20156;-77
2022/11/24 00:13:00;;;;;;;8.82;3.00;;;5.30;98.10;;;;;;5030597;28;20108;-77
2022/11/24 00:15:25;;;;;;;8.82;3.00;;;5.30;98.10;;;;;;5027448;28;20029;-77
2022/11/24 00:17:51;;;;;;;7.85;3.17;;;5.20;98.10;;;;;;5031611;28;20033;-77
2022/11/24 00:20:16;;;;;;;11.30;3.20;;;5.30;98.20;;;;;;5029582;28;20051;-77
2022/11/24 00:22:42;;;;;;;8.68;3.70;;;5.20;98.20;;;;;;5034886;28;20053;-78
2022/11/24 00:25:07;;;;;;;10.32;2.92;;;5.20;98.20;;;;;;5029622;28;20103;-76
2022/11/24 00:27:33;;;;;;;5.72;2.78;;;5.20;98.20;;;;;;5032072;28;20047;-76
2022/11/24 00:29:58;;;;;;;7.57;3.00;;;5.20;98.20;;;;;;5025219;28;20113;-76
2022/11/24 00:32:28;;;;;;;8.35;3.15;;;5.20;98.30;;;;;;5029070;28;20041;-76
2022/11/24 00:34:53;;;;;;;8.80;3.03;;;5.30;98.30;;;;;;5028614;28;20430;-78
2022/11/24 00:37:18;;;;;;;7.03;3.33;;;5.20;98.30;;;;;;5029825;28;20041;-77
2022/11/24 00:39:44;;;;;;;10.43;3.17;;;5.20;98.30;;;;;;5029581;28;20033;-76
2022/11/24 00:42:09;;;;;;;9.73;3.13;;;5.20;98.30;;;;;;5025370;28;20030;-77
2022/11/24 00:44:35;;;;;;;10.70;3.75;;;5.20;98.30;;;;;;5022886;28;20103;-76
2022/11/24 00:47:00;;;;;;;11.70;3.15;;;5.30;98.40;;;;;;5030461;28;20087;-76
2022/11/24 00:49:26;;;;;;;9.57;3.53;;;5.30;98.40;;;;;;5031832;28;20040;-75
2022/11/24 00:51:51;;;;;;;8.27;3.10;;;5.30;98.30;;;;;;5027447;28;20045;-77
2022/11/24 00:54:17;;;;;;;8.95;3.53;;;5.30;98.30;;;;;;5024067;28;20026;-77
2022/11/24 00:56:43;;;;;;;12.27;2.78;;;5.30;98.30;;;;;;5032865;28;20120;-77
2022/11/24 00:59:08;;;;;;;8.02;3.13;;;5.30;98.30;;;;;;5027011;28;20427;-76
2022/11/24 01:01:34;;;;;;;10.20;3.70;;;5.30;98.20;;;;;;5029420;28;20331;-76
2022/11/24 01:04:02;;;;;;;7.20;3.53;;;5.30;98.20;;;;;;5021989;28;20121;-76
2022/11/24 01:06:29;;;;;;;8.93;3.35;;;5.30;98.20;;;;;;5028001;28;20026;-77
2022/11/24 01:08:56;;;;;;;10.15;3.13;;;5.30;98.30;;;;;;5034963;28;20322;-76
2022/11/24 01:11:27;;;;;;;8.77;2.95;;;5.20;98.20;;;;;;5031445;28;20061;-76
2022/11/24 01:13:58;;;;;;;14.90;3.53;;;5.30;98.30;;;;;;5036696;28;20117;-76
2022/11/24 01:16:28;;;;;;;9.05;2.95;;;5.30;98.30;;;;;;5025348;28;20131;-76
2022/11/24 01:18:54;;;;;;;7.78;3.15;;;5.30;98.30;;;;;;5024166;28;20150;-76
2022/11/24 01:21:20;;;;;;;10.02;3.15;;;5.20;98.30;;;;;;5028644;28;20433;-77
2022/11/24 01:23:46;;;;;;;10.90;3.03;;;5.20;98.30;;;;;;5027821;28;20090;-76
2022/11/24 01:26:15;;;;;;;12.20;3.13;;;5.20;98.40;;;;;;5030774;28;20032;-77
2022/11/24 01:28:41;;;;;;;5.63;2.90;;;5.10;98.30;;;;;;5024319;28;20119;-76
2022/11/24 01:31:07;;;;;;;9.57;3.13;;;5.20;98.50;;;;;;5025842;28;20434;-76
2022/11/24 01:33:33;;;;;;;7.50;3.15;;;5.10;98.40;;;;;;5024420;28;20026;-76
2022/11/24 01:36:01;;;;;;;10.85;2.92;;;5.10;98.40;;;;;;5025857;28;20040;-76
2022/11/24 01:38:26;;;;;;;6.93;2.85;;;5.10;98.40;;;;;;5023256;28;20445;-77
2022/11/24 01:41:04;;;;;;;8.20;3.25;;;5.10;98.40;;;;;;5024373;28;20089;-76
2022/11/24 01:43:30;;;;;;;12.07;3.35;;;5.00;98.60;;;;;;5017670;28;20064;-76
2022/11/24 01:45:57;;;;;;;9.18;2.83;;;4.90;98.60;;;;;;5025670;28;20337;-76
2022/11/24 01:48:31;;;;;;;10.52;2.92;;;4.90;98.70;;;;;;5024065;28;20068;-76
2022/11/24 01:51:20;;;;;;;6.45;2.92;;;4.90;98.60;;;;;;5025328;28;20029;-76
2022/11/24 01:53:56;;;;;;;8.82;3.17;;;4.80;98.70;;;;;;5030464;28;20021;-76
2022/11/24 01:56:22;;;;;;;11.38;3.35;;;4.70;98.70;;;;;;5028360;28;20030;-77
2022/11/24 01:58:50;;;;;;;12.35;3.55;;;4.70;98.90;;;;;;5023552;28;20030;-76
2022/11/24 02:01:16;;;;;;;10.85;3.67;;;4.70;98.80;;;;;;5025265;28;20033;-77
2022/11/24 02:03:44;;;;;;;8.07;3.50;;;4.70;99.00;;;;;;5025301;28;20479;-76
2022/11/24 02:06:20;;;;;;;9.27;3.35;;;4.70;99.00;;;;;;5025506;28;20043;-76
2022/11/24 02:08:56;;;;;;;13.45;3.92;;;4.60;99.00;;;;;;5027254;28;20029;-76
2022/11/24 02:11:25;;;;;;;12.15;4.15;;;4.60;99.00;;;;;;5027001;28;20017;-76
2022/11/24 02:13:52;;;;;;;9.25;3.63;;;4.70;99.10;;;;;;5019038;28;20037;-76
2022/11/24 02:16:18;;;;;;;9.57;3.83;;;4.70;99.20;;;;;;5021602;28;20030;-76
2022/11/24 02:18:43;;;;;;;9.88;3.58;;;4.70;99.20;;;;;;5025229;28;20026;-76
2022/11/24 02:21:12;;;;;;;10.90;4.22;;;4.70;99.20;;;;;;5025869;28;20082;-76
2022/11/24 02:23:46;;;;;;;12.32;3.95;;;4.60;99.20;;;;;;5030177;28;20061;-76
2022/11/24 02:26:37;;;;;;;10.90;4.25;;;4.60;99.10;;;;;;5023520;28;20188;-76
2022/11/24 02:29:03;;;;;;;;;;;4.50;99.30;;;;;;5016780;28;20084;-76
2022/11/24 02:31:28;;;;;;;10.60;3.75;;;4.60;99.40;;;;;;5028023;28;19997;-76
2022/11/24 02:33:54;;;;;;;16.10;4.75;;;4.60;99.40;;;;;;5022915;28;20028;-76
2022/11/24 02:36:20;;;;;;;12.25;4.53;;;4.70;99.40;;;;;;5035712;28;20074;-76
2022/11/24 02:38:45;;;;;;;9.20;4.40;;;4.80;99.40;;;;;;5021697;28;20127;-76
2022/11/24 02:41:15;;;;;;;10.85;3.95;;;4.60;99.30;;;;;;5031368;28;20110;-76
2022/11/24 02:43:45;;;;;;;12.63;5.15;;;4.60;99.30;;;;;;5024740;28;20180;-76
2022/11/24 02:46:11;;;;;;;14.25;4.90;;;4.60;99.50;;;;;;5024295;28;20025;-76
2022/11/24 02:48:37;;;;;;;18.50;5.00;;;4.70;99.60;;;;;;5018366;28;20025;-76
2022/11/24 02:51:03;;;;;;;11.52;4.72;;;4.70;99.60;;;;;;5028990;28;20048;-76
2022/11/24 02:53:29;;;;;;;9.65;4.97;;;4.80;99.60;;;;;;5027054;28;20048;-76
2022/11/24 02:55:54;;;;;;;17.55;5.07;;;4.80;99.60;;;;;;5030753;28;20025;-76
2022/11/24 02:58:20;;;;;;;12.23;5.30;;;4.90;99.50;;;;;;5020397;28;20029;-77
2022/11/24 03:00:45;;;;;;;10.60;4.80;;;4.80;99.50;;;;;;5024358;28;20060;-76
2022/11/24 03:03:10;;;;;;;17.55;4.30;;;4.90;99.50;;;;;;5018742;28;20109;-76
2022/11/24 03:05:36;;;;;;;15.40;5.22;;;4.80;99.50;;;;;;5027719;28;20449;-76
2022/11/24 03:08:02;;;;;;;11.85;4.70;;;4.90;99.60;;;;;;5024079;28;20207;-76
2022/11/24 03:10:28;;;;;;;12.48;4.95;;;4.80;99.60;;;;;;5027458;28;20515;-76
2022/11/24 03:12:53;;;;;;;18.08;5.30;;;4.80;99.50;;;;;;5027824;28;20021;-76
2022/11/24 03:15:19;;;;;;;17.45;5.20;;;5.00;99.70;;;;;;5027939;28;20074;-76
2022/11/24 03:17:44;;;;;;;16.40;5.05;;;4.90;99.60;;;;;;5037479;28;20025;-76
2022/11/24 03:20:10;;;;;;;11.85;4.72;;;5.00;99.60;;;;;;5030493;28;20032;-76
2022/11/24 03:22:36;;;;;;;13.27;4.90;;;5.00;99.70;;;;;;5025324;28;20045;-76
2022/11/24 03:25:03;;;;;;;14.13;5.18;;;5.00;99.60;;;;;;5031276;28;20041;-76
2022/11/24 03:27:30;;;;;;;13.05;5.15;;;5.10;99.60;;;;;;5034386;28;20453;-76
2022/11/24 03:29:55;;;;;;;17.60;5.18;;;5.10;99.70;;;;;;5026981;28;20468;-76
2022/11/24 03:32:21;;;;;;;15.13;5.70;;;5.30;99.70;;;;;;5018179;28;20030;-76
2022/11/24 03:34:46;;;;;;;11.85;5.38;;;5.20;99.60;;;;;;5037478;28;20119;-76
2022/11/24 03:37:12;;;;;;;17.13;4.97;;;5.30;99.70;;;;;;5016149;28;20080;-76
2022/11/24 03:39:37;;;;;;;18.08;5.88;;;5.40;99.60;;;;;;5024778;28;20025;-76
2022/11/24 03:42:03;;;;;;;12.50;5.22;;;5.40;99.60;;;;;;5027786;28;20065;-76
2022/11/24 03:44:28;;;;;;;13.05;4.97;;;5.40;99.60;;;;;;5019387;28;20038;-76
2022/11/24 03:46:54;;;;;;;11.52;5.72;;;5.50;99.50;;;;;;5033627;28;20087;-76
2022/11/24 03:49:19;;;;;;;17.63;5.28;;;5.60;99.50;;;;;;5038347;28;20102;-76
2022/11/24 03:51:45;;;;;;;19.00;5.85;;;5.60;99.50;;;;;;5024163;28;20112;-77
2022/11/24 03:54:10;;;;;;;19.45;5.65;;;5.60;99.50;;;;;;5032025;28;20109;-76
2022/11/24 03:56:36;;;;;;;21.02;5.68;;;5.60;99.50;;;;;;5023047;28;20033;-77
2022/11/24 03:59:02;;;;;;;13.23;4.90;;;5.70;99.50;;;;;;5036159;28;20032;-76
2022/11/24 04:01:27;;;;;;;20.70;6.25;;;5.70;99.40;;;;;;5026387;28;20022;-76
2022/11/24 04:03:53;;;;;;;12.82;5.25;;;5.80;99.40;;;;;;5031192;28;20151;-76
2022/11/24 04:06:18;;;;;;;16.50;6.20;;;5.80;99.30;;;;;;5028033;28;20397;-76
2022/11/24 04:08:43;;;;;;;17.83;5.70;;;5.80;99.30;;;;;;5020164;28;20132;-76
2022/11/24 04:12:42;;;;;;;12.52;5.38;;;5.80;99.30;;;;;;5017907;28;20042;-76
2022/11/24 04:13:54;;;;;;;14.95;5.35;;;5.90;99.30;;;;;;5031316;28;20472;-76
2022/11/24 04:16:20;;;;;;;19.15;5.85;;;5.90;99.20;;;;;;5027574;28;20022;-76
2022/11/24 04:18:45;;;;;;;17.48;5.85;;;6.00;99.20;;;;;;5014085;28;20037;-76
2022/11/24 04:21:11;;;;;;;12.65;5.00;;;6.00;99.10;;;;;;5020405;28;20080;-78
2022/11/24 04:23:36;;;;;;;19.05;5.28;;;6.00;99.10;;;;;;5022167;28;20103;-75
2022/11/24 04:26:02;;;;;;;17.17;5.32;;;6.00;99.00;;;;;;5030508;28;20461;-78
2022/11/24 04:28:27;;;;;;;15.93;5.05;;;6.00;99.00;;;;;;5024902;28;20450;-75
2022/11/24 04:30:53;;;;;;;20.55;5.93;;;6.10;99.00;;;;;;5030543;28;20029;-75
2022/11/24 04:33:18;;;;;;;19.80;6.05;;;6.00;99.00;;;;;;5027438;28;20121;-75
2022/11/24 04:35:44;;;;;;;19.27;5.75;;;6.10;99.00;;;;;;5026409;28;20018;-75
2022/11/24 04:38:09;;;;;;;19.20;5.53;;;6.10;99.10;;;;;;5030390;28;20029;-75
2022/11/24 04:40:35;;;;;;;13.30;4.95;;;6.10;99.00;;;;;;5027347;28;20026;-75
2022/11/24 04:43:01;;;;;;;18.42;5.78;;;6.20;99.10;;;;;;5026082;28;20092;-75
2022/11/24 04:45:26;;;;;;;21.65;5.35;;;6.10;99.00;;;;;;5030179;28;20098;-75
2022/11/24 04:47:52;;;;;;;15.85;5.80;;;6.30;99.10;;;;;;5032072;28;20304;-75
2022/11/24 04:50:17;;;;;;;20.45;6.35;;;6.20;98.90;;;;;;5018712;28;20022;-75
2022/11/24 04:52:43;;;;;;;17.40;5.85;;;6.20;98.80;;;;;;5025595;28;20030;-75
2022/11/24 04:55:09;;;;;;;18.73;5.50;;;6.20;98.80;;;;;;5040550;28;20034;-75
2022/11/24 04:57:34;;;;;;;11.07;5.35;;;6.20;98.80;;;;;;5025038;28;20315;-75
2022/11/24 05:00:00;;;;;;;14.75;5.60;;;6.10;98.80;;;;;;5027158;28;20048;-75
2022/11/24 05:02:25;;;;;;;20.63;6.30;;;6.10;98.90;;;;;;5029735;28;20109;-75
2022/11/24 05:04:50;;;;;;;18.88;5.18;;;6.10;98.90;;;;;;5033525;28;20037;-75
2022/11/24 05:07:17;;;;;;;17.98;5.32;;;6.00;98.80;;;;;;5036882;28;20437;-75
2022/11/24 05:12:30;;;;;;;16.58;5.88;;;5.80;98.80;;;;;;5035417;28;20120;-75
2022/11/24 05:15:00;;;;;;;21.88;5.63;;;5.90;99.10;;;;;;5040604;28;20124;-75
2022/11/24 05:17:30;;;;;;;16.83;5.78;;;5.90;99.20;;;;;;5038643;28;20027;-75
2022/11/24 05:19:56;;;;;;;23.08;5.75;;;6.00;99.30;;;;;;5028704;28;20445;-75
2022/11/24 05:22:22;;;;;;;22.35;5.95;;;6.10;99.30;;;;;;5033720;28;20496;-75
2022/11/24 05:24:47;;;;;;;22.00;6.78;;;6.10;99.30;;;;;;5029045;28;20060;-76
2022/11/24 05:27:13;;;;;;;18.63;6.80;;;6.30;99.40;;;;;;5026726;28;20441;-75
2022/11/24 05:29:38;;;;;;;24.88;6.80;;;6.30;99.20;;;;;;5028692;28;20117;-77
2022/11/24 05:32:04;;;;;;;20.92;6.68;;;6.30;99.30;;;;;;5024690;28;20129;-74
2022/11/24 05:34:32;;;;;;;23.63;7.00;;;6.30;99.20;;;;;;5024995;28;20100;-74
2022/11/24 05:37:01;;;;;;;17.83;6.15;;;6.30;99.00;;;;;;5038148;28;20358;-75
2022/11/24 05:39:28;;;;;;;22.90;6.63;;;6.30;99.00;;;;;;5029118;28;20033;-74
2022/11/24 05:41:54;;;;;;;22.33;6.85;;;6.30;99.00;;;;;;5033525;28;20025;-74
2022/11/24 05:44:19;;;;;;;22.45;7.10;;;6.30;99.10;;;;;;5027875;28;20107;-74
2022/11/24 05:46:45;;;;;;;21.05;6.57;;;6.20;99.00;;;;;;5033676;28;20036;-76
2022/11/24 05:49:10;;;;;;;21.63;6.18;;;6.20;99.00;;;;;;5033920;28;20643;-74
2022/11/24 05:51:36;;;;;;;18.50;6.72;;;6.10;98.90;;;;;;5037323;28;20042;-74
2022/11/24 05:54:01;;;;;;;19.45;6.43;;;6.10;98.90;;;;;;5033762;28;20049;-74
2022/11/24 05:56:27;;;;;;;22.60;6.45;;;6.10;99.00;;;;;;5038067;28;20349;-75
2022/11/24 05:58:52;;;;;;;20.60;6.07;;;6.10;98.90;;;;;;5030650;28;20110;-75
2022/11/24 06:01:18;;;;;;;21.13;6.88;;;6.00;99.00;;;;;;5035774;28;20076;-75
2022/11/24 06:03:43;;;;;;;16.30;6.30;;;6.00;99.00;;;;;;5037583;28;20492;-75
2022/11/24 06:06:09;;;;;;;21.08;6.22;;;6.00;99.00;;;;;;5037543;28;20072;-75
2022/11/24 06:08:35;;;;;;;22.05;6.68;;;6.00;99.10;;;;;;5048475;28;20445;-75
2022/11/24 06:11:15;;;;;;;22.13;7.15;;;5.90;99.10;;;;;;5025250;28;20041;-75
2022/11/24 06:13:42;;;;;;;13.82;5.68;;;6.00;99.20;;;;;;5044152;28;20040;-75
2022/11/24 06:16:07;;;;;;;18.15;6.55;;;6.00;99.20;;;;;;5025871;28;20207;-76
2022/11/24 06:18:32;;;;;;;15.20;6.63;;;6.00;99.30;;;;;;5039614;28;20219;-78
2022/11/24 06:21:02;;;;;;;21.95;6.40;;;6.00;99.30;;;;;;5033242;28;20017;-76
2022/11/24 06:23:27;;;;;;;22.35;6.72;;;5.90;99.20;;;;;;5020351;28;20037;-76
2022/11/24 06:25:53;;;;;;;19.58;5.80;;;5.90;99.20;;;;;;5028315;28;20176;-76
2022/11/24 06:28:18;;;;;;;24.13;6.30;;;5.90;99.40;;;;;;5015851;28;20060;-74
2022/11/24 06:30:44;;;;;;;16.75;6.20;;;5.80;99.30;;;;;;5027405;28;20345;-73
2022/11/24 06:33:10;;;;;;;19.55;6.35;;;5.80;99.30;;;;;;5016034;28;20434;-75
2022/11/24 06:35:35;;;;;;;23.42;6.15;;;5.70;99.30;;;;;;5016677;28;20095;-74
2022/11/24 06:38:00;;;;;;;15.90;5.90;;;5.80;99.40;;;;;;5032726;28;20455;-75
2022/11/24 06:40:26;;;;;;;19.25;5.88;;;5.80;99.50;;;;;;5031039;28;20043;-74
2022/11/24 06:42:51;;;;;;;20.33;5.63;;;5.70;99.40;;;;;;5015475;28;20088;-76
2022/11/24 06:45:17;;;;;;;27.52;5.63;;;5.60;99.40;;;;;;5015063;28;20028;-75
2022/11/24 06:47:42;;;;;;;27.63;5.80;;;5.60;99.50;;;;;;5029066;28;20127;-74
2022/11/24 06:50:09;;;;;;;29.83;6.05;;;5.60;99.50;;;;;;5018703;28;20354;-74
2022/11/24 06:52:34;;;;;;;21.33;5.80;;;5.60;99.60;;;;;;5030428;28;20114;-74
2022/11/24 06:55:00;;;;;;;26.10;6.30;;;5.70;99.70;;;;;;5031559;28;20469;-74
2022/11/24 06:57:28;;;;;;;16.00;4.95;;;5.60;99.60;;;;;;5025291;28;20029;-74
2022/11/24 06:59:53;;;;;;;14.30;5.30;;;5.70;99.70;;;;;;5034993;28;20178;-75
2022/11/24 07:02:19;;;;;;;23.08;5.43;;;5.70;99.70;;;;;;5013763;28;20183;-74
2022/11/24 07:04:44;;;;;;;26.33;5.82;;;5.60;99.60;;;;;;5012076;28;20041;-74
2022/11/24 07:07:10;;;;;;;17.10;5.13;;;5.60;99.70;;;;;;5018567;28;20026;-74
2022/11/24 07:09:35;;;;;;;21.90;5.90;;;5.70;99.70;;;;;;5025930;28;20374;-76
2022/11/24 07:12:01;;;;;;;23.17;5.90;;;5.70;99.70;;;;;;5021444;28;20370;-76
2022/11/24 07:14:26;;;;;;;25.90;5.50;;;5.70;99.80;;;;;;5025900;28;20164;-76
2022/11/24 07:16:52;;;;;;;19.25;5.57;;;5.80;99.80;;;;;;5025911;28;20029;-76
2022/11/24 07:19:17;;;;;;;23.45;5.93;;;5.80;99.70;;;;;;5017139;28;20431;-76
2022/11/24 07:21:43;;;;;;;25.73;5.82;;;5.80;99.70;;;;;;5022363;28;20133;-76
2022/11/24 07:24:08;;;;;;;15.43;4.57;;;5.80;99.80;;;;;;5033666;28;20036;-76
2022/11/24 07:26:36;;;;;;;26.10;5.63;;;5.90;99.70;;;;;;5029220;28;20033;-76
2022/11/24 07:29:03;;;;;;;22.05;5.05;;;5.90;99.70;;;;;;5022025;28;20120;-76
2022/11/24 07:31:29;;;;;;;21.25;4.97;;;5.90;99.60;;;;;;5016136;28;20054;-78
2022/11/24 07:33:55;;;;;;;24.17;5.53;;;5.80;99.60;;;;;;5023204;28;20060;-78
2022/11/24 07:36:21;;;;;;;28.13;6.00;;;5.80;99.60;;;;;;5013901;28;20037;-72
2022/11/24 07:38:47;;;;;;;26.90;5.40;;;5.90;99.60;;;;;;5027426;28;20037;-74
2022/11/24 07:41:14;;;;;;;23.90;5.30;;;5.90;99.60;;;;;;5033672;28;20087;-75
2022/11/24 07:43:39;;;;;;;17.67;4.55;;;5.90;99.50;;;;;;5023208;28;20398;-74
2022/11/24 07:46:08;;;;;;;17.00;4.95;;;6.00;99.50;;;;;;5017448;28;20029;-73
2022/11/24 07:48:34;;;;;;;20.70;4.68;;;5.90;99.40;;;;;;5025225;28;20048;-75
2022/11/24 07:51:00;;;;;;;16.92;4.75;;;5.90;99.40;;;;;;5032253;28;20066;-75
2022/11/24 07:53:26;;;;;;;16.20;5.32;;;5.80;99.40;;;;;;5019709;28;20064;-74
2022/11/24 07:55:54;;;;;;;23.05;4.85;;;6.00;99.50;;;;;;5034750;28;20473;-74
2022/11/24 07:58:20;;;;;;;23.08;4.82;;;6.10;99.50;;;;;;5018491;28;20442;-75
2022/11/24 08:00:45;;;;;;;19.50;4.68;;;6.10;99.40;;;;;;5034407;28;20120;-75
2022/11/24 08:03:11;;;;;;;20.95;5.10;;;6.20;99.40;;;;;;5024645;28;20042;-75
2022/11/24 08:05:36;;;;;;;21.15;4.88;;;6.30;99.30;;;;;;5027575;28;20121;-74
2022/11/24 08:08:02;;;;;;;27.25;5.32;;;6.40;99.20;;;;;;5029268;28;20378;-75
2022/11/24 08:10:27;;;;;;;28.13;4.97;;;6.40;99.10;;;;;;5036875;28;20108;-73
2022/11/24 08:12:53;;;;;;;17.88;4.28;;;6.40;99.00;;;;;;5031287;28;20128;-75
2022/11/24 08:15:19;;;;;;;19.88;4.68;;;6.50;98.90;;;;;;5028076;28;20187;-74
2022/11/24 08:17:44;;;;;;;22.95;4.72;;;6.60;98.70;;;;;;5030321;28;20354;-74
2022/11/24 08:20:10;;;;;;;23.55;4.32;;;6.60;98.60;;;;;;5031617;28;20033;-74
2022/11/24 08:22:35;;;;;;;21.35;4.40;;;6.70;98.50;;;;;;5026888;28;20065;-74
2022/11/24 08:25:01;;;;;;;18.60;4.00;;;6.80;98.40;;;;;;5027803;28;20030;-74
2022/11/24 08:27:26;;;;;;;19.88;3.80;;;6.80;98.40;;;;;;5030676;28;20440;-74
2022/11/24 08:29:52;;;;;;;18.45;3.65;;;6.80;98.20;;;;;;5034481;28;20059;-75
2022/11/24 08:32:17;;;;;;;19.67;4.03;;;6.90;98.10;;;;;;5034176;28;20053;-74
2022/11/24 08:34:43;;;;;;;15.30;3.42;;;6.90;98.10;;;;;;5034921;28;20127;-75
2022/11/24 08:37:08;;;;;;;18.58;4.22;;;6.90;98.00;;;;;;5027739;28;20375;-75
2022/11/24 08:39:33;;;;;;;14.95;3.28;;;7.00;97.90;;;;;;5029245;28;20029;-74
2022/11/24 08:41:59;;;;;;;15.85;4.05;;;7.10;97.70;;;;;;5029825;28;20060;-74
2022/11/24 08:44:27;;;;;;;22.38;4.40;;;7.10;97.70;;;;;;5018789;28;20189;-74
2022/11/24 08:46:53;;;;;;;12.95;3.58;;;7.10;97.30;;;;;;5031328;28;20029;-75
2022/11/24 08:49:18;;;;;;;12.43;3.65;;;7.20;97.10;;;;;;5022203;28;20714;-74
2022/11/24 08:51:45;;;;;;;18.30;3.65;;;7.20;96.90;;;;;;5025685;28;20137;-74
2022/11/24 08:54:14;;;;;;;17.83;3.75;;;7.30;96.80;;;;;;5029351;28;20025;-75
2022/11/24 08:56:39;;;;;;;16.88;3.65;;;7.30;96.60;;;;;;5034898;28;20418;-74
2022/11/24 08:59:05;;;;;;;20.10;3.38;;;7.30;96.60;;;;;;5025773;28;20033;-72
2022/11/24 09:01:31;;;;;;;17.75;3.10;;;7.30;96.60;;;;;;5037896;28;20120;-74
2022/11/24 09:03:57;;;;;;;14.35;3.30;;;7.40;96.40;;;;;;5027175;28;20156;-74
2022/11/24 09:06:26;;;;;;;18.10;3.60;;;7.40;96.10;;;;;;5042484;28;20529;-72
2022/11/24 09:08:55;;;;;;;13.65;2.60;;;7.40;96.10;;;;;;5030412;28;20343;-73
2022/11/24 09:11:21;;;;;;;18.35;3.55;;;7.50;96.10;;;;;;5021055;28;20030;-75
2022/11/24 09:13:46;;;;;;;22.55;3.63;;;7.60;96.20;;;;;;5037446;28;20041;-74
2022/11/24 09:16:17;;;;;;;15.00;3.00;;;7.70;95.90;;;;;;5020695;28;20030;-74
2022/11/24 09:18:43;;;;;;;18.48;3.72;;;7.80;95.80;;;;;;5023103;28;20069;-74
2022/11/24 09:21:17;;;;;;;9.00;2.65;;;7.90;95.80;;;;;;5030606;28;20377;-75
2022/11/24 09:23:45;;;;;;;16.40;3.25;;;8.00;95.30;;;;;;5030744;28;20053;-75
2022/11/24 09:26:17;;;;;;;13.32;3.20;;;8.10;95.40;;;;;;5023397;28;20100;-74
2022/11/24 09:28:43;;;;;;;14.05;3.42;;;8.20;95.10;;;;;;5019312;28;20068;-74
2022/11/24 09:31:11;;;;;;;13.40;2.80;;;8.20;95.20;;;;;;5018428;28;20038;-74
2022/11/24 09:33:37;;;;;;;11.25;3.33;;;8.20;94.80;;;;;;5022321;28;20076;-74
2022/11/24 09:36:04;;;;;;;11.68;2.72;;;8.20;94.80;;;;;;5020186;28;20057;-74
2022/11/24 09:38:30;;;;;;;11.48;2.90;;;8.40;94.90;;;;;;5022284;28;20501;-75
2022/11/24 09:41:04;;;;;;;15.50;2.83;;;8.30;94.70;;;;;;5025937;28;20133;-75
2022/11/24 09:43:38;;;;;;;15.40;3.25;;;8.30;94.50;;;;;;5026803;28;20379;-75
2022/11/24 09:46:12;;;;;;;15.55;3.08;;;8.40;94.30;;;;;;5028284;28;20036;-75
2022/11/24 09:48:45;;;;;;;12.75;3.28;;;8.30;94.00;;;;;;5026128;28;20488;-74
2022/11/24 09:51:12;;;;;;;15.30;3.20;;;8.40;94.30;;;;;;5023900;28;20032;-74
2022/11/24 09:53:43;;;;;;;14.55;3.22;;;8.40;94.00;;;;;;5021650;28;20505;-73
2022/11/24 09:56:20;;;;;;;14.48;3.38;;;8.40;93.60;;;;;;5028096;28;20025;-74
2022/11/24 09:59:01;;;;;;;11.82;3.42;;;8.50;93.80;;;;;;5020207;28;20040;-74
2022/11/24 10:01:36;;;;;;;13.30;3.03;;;8.50;93.50;;;;;;5020772;28;20887;-75
2022/11/24 10:04:03;;;;;;;13.82;3.15;;;8.50;93.70;;;;;;5011156;28;20161;-74
2022/11/24 10:07:05;;;;;;;12.57;3.50;;;8.50;93.80;;;;;;5020477;28;20072;-74
2022/11/24 10:09:36;;;;;;;11.88;3.10;;;8.60;93.60;;;;;;5024964;28;20056;-73
2022/11/24 10:12:14;;;;;;;19.50;3.38;;;8.60;93.80;;;;;;5030211;28;20107;-73
2022/11/24 10:14:56;;;;;;;14.10;3.42;;;8.50;93.30;;;;;;5034724;28;20148;-74
2022/11/24 10:17:40;;;;;;;24.95;4.38;;;8.60;93.60;;;;;;5033653;28;20021;-75
2022/11/24 10:20:34;;;;;;;15.40;3.72;;;8.80;93.40;;;;;;5028557;28;20476;-75
2022/11/24 10:23:29;;;;;;;16.10;3.28;;;8.80;93.20;;;;;;5023490;28;20045;-74
2022/11/24 10:26:02;;;;;;;20.13;3.70;;;9.00;93.10;;;;;;5028424;28;20037;-74
2022/11/24 10:28:38;;;;;;;16.95;3.45;;;9.10;92.60;;;;;;5026885;28;20131;-74
2022/11/24 10:31:29;;;;;;;13.38;3.10;;;9.00;91.90;;;;;;5020794;28;20079;-74
2022/11/24 10:34:00;;;;;;;16.40;3.47;;;9.10;92.30;;;;;;5017392;28;20056;-76
2022/11/24 10:36:44;;;;;;;19.27;3.85;;;9.10;92.10;;;;;;5018900;28;20024;-76
2022/11/24 10:39:22;;;;;;;16.17;3.80;;;9.00;91.90;;;;;;5023197;28;20064;-76
2022/11/24 10:42:04;;;;;;;13.98;3.30;;;8.90;92.00;;;;;;5015420;28;20308;-76
2022/11/24 10:44:30;;;;;;;16.17;3.55;;;9.00;92.20;;;;;;5027807;28;20063;-76
2022/11/24 10:46:56;;;;;;;14.90;3.25;;;9.00;92.10;;;;;;5024628;28;20057;-77
2022/11/24 10:49:26;;;;;;;12.90;3.67;;;9.10;92.00;;;;;;5018809;28;20033;-76
2022/11/24 10:52:00;;;;;;;15.85;3.47;;;9.30;92.10;;;;;;5039366;28;20558;-76
2022/11/24 10:54:26;;;;;;;16.20;3.05;;;9.30;91.50;;;;;;5031618;28;20034;-76
2022/11/24 10:56:53;;;;;;;13.05;3.03;;;9.20;91.00;;;;;;5029514;28;20032;-75
2022/11/24 10:59:26;;;;;;;16.08;3.97;;;9.20;91.40;;;;;;5028042;28;20099;-76
2022/11/24 11:01:53;;;;;;;15.02;3.92;;;9.30;90.40;;;;;;5034626;28;20051;-76
2022/11/24 11:04:33;;;;;;;17.40;3.45;;;9.40;90.10;;;;;;5029289;28;20431;-76
2022/11/24 11:07:14;;;;;;;12.60;3.03;;;9.50;90.50;;;;;;5025321;28;20445;-76
2022/11/24 11:09:39;;;;;;;11.75;3.17;;;9.80;90.50;;;;;;5023639;28;20037;-75
2022/11/24 11:12:26;;;;;;;15.98;3.42;;;9.70;89.70;;;;;;5031801;28;20445;-75
2022/11/24 11:14:51;;;;;;;15.98;3.35;;;9.50;89.70;;;;;;5021274;28;20017;-75
2022/11/24 11:17:29;;;;;;;17.38;3.55;;;9.60;90.40;;;;;;5024468;28;20033;-75
2022/11/24 11:20:17;;;;;;;20.00;3.70;;;9.60;90.40;;;;;;5039547;28;20029;-75
2022/11/24 11:22:45;;;;;;;19.73;3.92;;;9.50;90.10;;;;;;5031239;28;21432;-75
2022/11/24 11:25:26;;;;;;;10.82;3.20;;;9.60;90.70;;;;;;5025534;28;20465;-75
2022/11/24 11:28:15;;;;;;;15.18;3.30;;;9.50;90.40;;;;;;5022795;28;20025;-75
2022/11/24 11:30:53;;;;;;;12.63;3.50;;;9.40;90.80;;;;;;5027922;28;20447;-75
2022/11/24 11:33:27;;;;;;;14.07;3.17;;;9.20;90.70;;;;;;5023184;28;20510;-75
2022/11/24 11:35:53;;;;;;;17.25;3.45;;;9.10;91.00;;;;;;5023699;28;20036;-75
2022/11/24 11:38:19;;;;;;;18.73;3.72;;;9.00;91.50;;;;;;5027077;28;20426;-75
2022/11/24 11:40:49;;;;;;;16.08;3.80;;;9.00;91.70;;;;;;5023809;28;20033;-75
2022/11/24 11:43:24;;;;;;;14.13;4.05;;;8.90;91.70;;;;;;5026348;28;20034;-75
2022/11/24 11:46:10;;;;;;;13.95;3.08;;;8.80;91.50;;;;;;5021773;28;20025;-75
2022/11/24 11:48:38;;;;;;;14.15;3.20;;;8.90;91.70;;;;;;5030992;28;20056;-75
2022/11/24 11:51:33;;;;;;;14.95;3.97;;;9.00;91.90;;;;;;5032352;28;20098;-75
2022/11/24 11:54:36;;;;;;;14.18;3.10;;;9.00;91.60;;;;;;5026846;28;20519;-75
2022/11/24 11:57:16;;;;;;;15.00;3.67;;;9.20;91.50;;;;;;5023181;28;20100;-75
2022/11/24 12:00:09;;;;;;;14.20;3.40;;;9.30;91.20;;;;;;5022167;28;20045;-75
2022/11/24 12:02:53;;;;;;;16.42;3.45;;;9.40;91.30;;;;;;5025758;28;20100;-75
2022/11/24 12:05:19;;;;;;;14.25;3.42;;;9.40;90.90;;;;;;5027883;28;20056;-75
2022/11/24 12:07:54;;;;;;;15.95;3.38;;;9.40;91.00;;;;;;5017243;28;20087;-75
2022/11/24 12:10:46;;;;;;;15.30;3.47;;;9.40;90.60;;;;;;5017147;28;20033;-75
2022/11/24 12:13:57;;;;;;;19.60;3.15;;;9.50;90.60;;;;;;5026334;28;20472;-75
2022/11/24 12:16:37;;;;;;;20.02;3.40;;;9.60;90.40;;;;;;5024084;28;20099;-75
2022/11/24 12:19:35;;;;;;;23.83;3.30;;;9.60;90.20;;;;;;5024568;28;20125;-76
2022/11/24 12:22:12;;;;;;;17.52;4.22;;;9.80;90.20;;;;;;4997809;28;20288;-75
2022/11/24 12:24:42;;;;;;;14.77;3.40;;;9.70;90.00;;;;;;5025739;28;20433;-75
2022/11/24 12:27:33;;;;;;;12.68;3.35;;;9.70;89.80;;;;;;5029075;28;20107;-75
2022/11/24 12:30:09;;;;;;;;;;;9.70;90.00;;;;;;5026448;28;20203;-75
2022/11/24 12:33:09;;;;;;;15.52;3.15;;;9.60;89.80;;;;;;5023064;28;19917;-75
2022/11/24 12:35:44;;;;;;;17.48;3.95;;;9.50;90.10;;;;;;5023986;28;20080;-76
2022/11/24 12:38:28;;;;;;;17.00;3.67;;;9.50;90.40;;;;;;5017114;28;20021;-75
2022/11/24 12:41:19;;;;;;;21.42;3.90;;;9.50;90.30;;;;;;5012534;28;20034;-75
2022/11/24 12:43:52;;;;;;;17.10;4.38;;;9.50;90.50;;;;;;5023610;28;20218;-75
2022/11/24 12:46:49;;;;;;;14.13;3.60;;;9.40;90.50;;;;;;5027775;28;20514;-75
2022/11/24 12:49:24;;;;;;;19.92;3.65;;;9.50;90.50;;;;;;5031291;28;20021;-75
2022/11/24 12:52:04;;;;;;;14.70;3.35;;;9.60;90.60;;;;;;5021351;28;20055;-75
2022/11/24 12:54:38;;;;;;;15.65;3.78;;;9.60;90.50;;;;;;5042874;28;20183;-75
2022/11/24 12:57:06;;;;;;;17.88;3.95;;;9.60;90.30;;;;;;5020705;28;20446;-75
2022/11/24 12:59:50;;;;;;;21.55;4.10;;;9.60;90.60;;;;;;5016771;28;20433;-75
2022/11/24 13:02:53;;;;;;;16.60;3.25;;;9.60;90.70;;;;;;5028282;28;20042;-75